Time;durP1;ratioP1;P1;durP2;ratioP2;P2;SDS_P1;SDS_P2;PMS_P1;PMS_P2;Temp;Humidity;BMP_temperature;BMP_pressure;BME280_temperature;BME280_humidity;BME280_pressure;Samples;Min_cycle;Max_cycle;Signal;HPM_P1;HPM_P2
2022/09/30 00:01:51;;;;;;;14.45;11.70;;;;;;;6.12;100.00;154069.31;4955908;28;20485;-80
2022/09/30 00:04:19;;;;;;;15.13;11.00;;;;;;;6.15;100.00;154077.00;4948052;28;20043;-81
2022/09/30 00:06:48;;;;;;;15.18;10.93;;;;;;;6.18;100.00;154084.69;4944056;29;20544;-80
2022/09/30 00:09:15;;;;;;;18.55;13.25;;;;;;;6.12;100.00;154070.63;4938316;28;20039;-81
2022/09/30 00:11:42;;;;;;;19.58;12.80;;;;;;;6.14;100.00;154075.72;4936326;28;20034;-79
2022/09/30 00:14:13;;;;;;;17.63;12.00;;;;;;;6.16;100.00;154080.84;4925722;29;20083;-81
2022/09/30 00:16:38;;;;;;;16.85;12.40;;;;;;;6.34;100.00;154125.59;4952129;28;20046;-80
2022/09/30 00:19:04;;;;;;;19.33;11.95;;;;;;;6.34;100.00;154125.59;4948766;28;20039;-79
2022/09/30 00:21:32;;;;;;;17.95;13.32;;;;;;;6.39;100.00;154138.41;4951052;28;20039;-79
2022/09/30 00:23:59;;;;;;;16.27;13.13;;;;;;;6.47;100.00;154157.59;4929795;29;20035;-80
2022/09/30 00:26:25;;;;;;;22.02;13.20;;;;;;;6.46;100.00;154153.72;4949756;28;20062;-79
2022/09/30 00:28:54;;;;;;;14.48;12.02;;;;;;;6.51;100.00;154167.81;4939545;29;20147;-79
2022/09/30 00:31:22;;;;;;;16.70;12.88;;;;;;;6.48;100.00;154158.84;4936500;28;20054;-80
2022/09/30 00:34:05;;;;;;;14.80;12.45;;;;;;;6.38;100.00;154135.81;4916796;29;20496;-79
2022/09/30 00:36:53;;;;;;;18.00;12.98;;;;;;;6.37;100.00;154132.03;4960344;28;20043;-79
2022/09/30 00:39:25;;;;;;;16.38;12.57;;;;;;;6.30;100.00;154115.38;4938713;28;20043;-81
2022/09/30 00:41:59;;;;;;;18.83;13.55;;;;;;;6.12;100.00;154070.63;4934568;28;20031;-80
2022/09/30 00:44:45;;;;;;;20.15;12.20;;;;;;;6.19;100.00;154088.47;4936422;28;20050;-79
2022/09/30 00:47:40;;;;;;;16.55;12.38;;;;;;;6.14;100.00;154075.72;4930575;28;20510;-79
2022/09/30 00:50:19;;;;;;;17.38;12.90;;;;;;;6.06;100.00;154055.22;4913935;29;20051;-78
2022/09/30 00:52:54;;;;;;;14.73;11.90;;;;;;;6.04;100.00;154051.38;4939460;29;20374;-78
2022/09/30 00:55:36;;;;;;;17.83;13.07;;;;;;;5.98;100.00;154034.78;4936508;28;20043;-79
2022/09/30 00:58:04;;;;;;;17.10;13.32;;;;;;;6.00;100.00;154041.16;4922960;29;20082;-79
2022/09/30 01:00:30;;;;;;;16.27;13.98;;;;;;;5.94;100.00;154025.78;4935048;28;20071;-78
2022/09/30 01:02:56;;;;;;;22.85;13.25;;;;;;;5.95;100.00;154028.41;4960756;28;20038;-80
2022/09/30 01:05:25;;;;;;;15.55;12.13;;;;;;;5.73;100.00;153972.09;4928379;28;20046;-80
2022/09/30 01:07:55;;;;;;;15.10;12.00;;;;;;;5.74;100.00;153975.88;4919512;29;20027;-80
2022/09/30 01:10:21;;;;;;;15.10;11.50;;;;;;;5.70;100.00;153964.41;4939515;28;20129;-82
2022/09/30 01:12:47;;;;;;;17.67;13.45;;;;;;;5.82;100.00;153995.06;4953350;28;20031;-80
2022/09/30 01:15:16;;;;;;;22.60;14.82;;;;;;;5.69;100.00;153963.13;4937122;28;20047;-80
2022/09/30 01:18:12;;;;;;;17.73;13.88;;;;;;;5.64;100.00;153950.31;4937528;29;20186;-79
2022/09/30 01:21:12;;;;;;;21.58;13.68;;;;;;;5.62;100.00;153946.47;4936622;29;20072;-80
2022/09/30 01:24:15;;;;;;;17.85;13.55;;;;;;;5.60;100.00;153940.09;4938365;28;20133;-80
2022/09/30 01:26:56;;;;;;;17.52;12.45;;;;;;;5.63;100.00;153949.06;4922091;28;20039;-79
2022/09/30 01:30:01;;;;;;;19.08;12.25;;;;;;;5.62;100.00;153946.47;4957618;28;20519;-80
2022/09/30 01:32:48;;;;;;;18.05;13.50;;;;;;;5.63;100.00;153947.75;4949943;28;20051;-79
2022/09/30 01:35:47;;;;;;;18.67;13.05;;;;;;;5.58;100.00;153935.00;4956666;28;20050;-80
2022/09/30 01:38:28;;;;;;;18.33;14.85;;;;;;;5.66;100.00;153955.44;4924564;28;20069;-78
2022/09/30 01:41:07;;;;;;;22.23;16.40;;;;;;;5.69;100.00;153963.13;4924633;29;20066;-78
2022/09/30 01:43:36;;;;;;;20.67;16.10;;;;;;;5.68;100.00;153959.28;4940718;29;20126;-78
2022/09/30 01:46:44;;;;;;;16.35;13.15;;;;;;;5.65;100.00;153954.16;4929441;28;20078;-81
2022/09/30 01:49:12;;;;;;;20.33;15.30;;;;;;;5.63;100.00;153947.75;4905234;28;20054;-79
2022/09/30 01:51:52;;;;;;;19.40;15.65;;;;;;;5.59;100.00;153937.53;4941172;29;20039;-81
2022/09/30 01:54:32;;;;;;;17.42;14.05;;;;;;;5.63;100.00;153947.75;4958988;28;20147;-81
2022/09/30 01:57:04;;;;;;;19.40;13.88;;;;;;;5.74;100.00;153974.63;4948123;28;20425;-80
2022/09/30 01:59:49;;;;;;;17.52;14.27;;;;;;;5.82;100.00;153995.06;4933542;28;20044;-80
2022/09/30 02:02:24;;;;;;;18.33;14.45;;;;;;;5.90;100.00;154015.56;4963200;28;20038;-80
2022/09/30 02:04:56;;;;;;;21.10;16.42;;;;;;;6.05;100.00;154052.69;4959139;28;20069;-81
2022/09/30 02:07:29;;;;;;;21.85;15.70;;;;;;;6.12;100.00;154070.63;4941178;28;20071;-81
2022/09/30 02:10:05;;;;;;;22.85;16.90;;;;;;;6.26;100.00;154103.88;4949191;29;20042;-81
2022/09/30 02:12:36;;;;;;;26.33;18.90;;;;;;;6.30;100.00;154115.38;4971074;28;20744;-80
2022/09/30 02:15:09;;;;;;;20.85;17.35;;;;;;;6.39;100.00;154138.41;4955494;28;20101;-80
2022/09/30 02:17:39;;;;;;;;;;;;;;;6.50;100.00;154163.97;4936889;28;20062;-79
2022/09/30 02:20:27;;;;;;;24.05;17.05;;;;;;;6.56;100.00;154179.34;4967387;28;19927;-78
2022/09/30 02:23:00;;;;;;;23.70;18.02;;;;;;;6.61;100.00;154193.44;4954628;28;20069;-80
2022/09/30 02:25:33;;;;;;;23.65;18.98;;;;;;;6.69;100.00;154212.63;4945485;28;20059;-80
2022/09/30 02:28:06;;;;;;;24.35;17.90;;;;;;;6.72;100.00;154220.28;4948108;28;20563;-80
2022/09/30 02:30:38;;;;;;;25.60;17.90;;;;;;;6.77;100.00;154231.81;4951140;28;20126;-80
2022/09/30 02:33:10;;;;;;;23.65;17.77;;;;;;;6.79;100.00;154236.94;4952066;29;20042;-79
2022/09/30 02:35:44;;;;;;;21.00;17.70;;;;;;;6.79;100.00;154238.19;4947365;28;20114;-80
2022/09/30 02:38:18;;;;;;;22.35;16.83;;;;;;;6.83;100.00;154247.16;4951799;29;20045;-81
2022/09/30 02:40:49;;;;;;;24.40;17.65;;;;;;;6.80;100.00;154240.78;4936001;29;20374;-81
2022/09/30 02:43:19;;;;;;;22.55;18.55;;;;;;;6.84;100.00;154249.72;4929300;28;20043;-82
2022/09/30 02:46:00;;;;;;;22.38;17.80;;;;;;;6.87;100.00;154256.13;4945652;29;20575;-80
2022/09/30 02:48:41;;;;;;;22.42;17.98;;;;;;;6.89;100.00;154262.50;4935965;28;20098;-82
2022/09/30 02:51:23;;;;;;;24.85;17.77;;;;;;;6.91;100.00;154267.66;4947093;29;20062;-81
2022/09/30 02:54:13;;;;;;;24.30;17.63;;;;;;;6.90;100.00;154265.09;4930626;28;20125;-82
2022/09/30 02:56:52;;;;;;;25.33;18.30;;;;;;;6.95;100.00;154276.56;4923614;28;20069;-81
2022/09/30 02:59:19;;;;;;;26.52;18.23;;;;;;;6.91;100.00;154267.66;4949290;28;20027;-82
2022/09/30 03:01:45;;;;;;;20.40;16.23;;;;;;;6.83;100.00;154248.41;4948514;29;20035;-82
2022/09/30 03:04:13;;;;;;;21.17;15.80;;;;;;;6.78;100.00;154235.66;4942449;28;20037;-78
2022/09/30 03:06:39;;;;;;;24.20;15.98;;;;;;;6.80;100.00;154240.78;4958980;28;20074;-81
2022/09/30 03:09:07;;;;;;;21.30;17.13;;;;;;;6.73;100.00;154221.59;4937264;28;20035;-80
2022/09/30 03:11:34;;;;;;;18.55;15.85;;;;;;;6.73;100.00;154221.59;4957941;28;20023;-81
2022/09/30 03:14:35;;;;;;;24.33;16.02;;;;;;;6.66;100.00;154204.91;4966028;28;20444;-81
2022/09/30 03:17:28;;;;;;;18.15;15.05;;;;;;;6.56;100.00;154180.63;4938420;29;20492;-81
2022/09/30 03:20:17;;;;;;;20.95;15.52;;;;;;;6.55;100.00;154178.03;4954265;28;20026;-82
2022/09/30 03:23:15;;;;;;;17.10;14.50;;;;;;;6.57;100.00;154183.19;4959501;28;20079;-81
2022/09/30 03:26:08;;;;;;;19.00;15.18;;;;;;;6.60;100.00;154189.59;4944369;29;20034;-80
2022/09/30 03:28:42;;;;;;;20.30;15.45;;;;;;;6.53;100.00;154172.94;4941805;28;20043;-81
2022/09/30 03:31:26;;;;;;;20.83;16.48;;;;;;;6.46;100.00;154153.72;4934852;29;20038;-81
2022/09/30 03:34:06;;;;;;;25.38;16.40;;;;;;;6.40;100.00;154140.97;4928487;29;20557;-80
2022/09/30 03:36:46;;;;;;;29.92;16.52;;;;;;;6.30;100.00;154115.38;4949799;28;20034;-80
2022/09/30 03:39:28;;;;;;;20.15;14.70;;;;;;;6.27;100.00;154106.41;4949261;28;20492;-80
2022/09/30 03:42:12;;;;;;;18.73;15.20;;;;;;;6.21;100.00;154093.59;4962124;28;20023;-81
2022/09/30 03:44:49;;;;;;;22.17;16.38;;;;;;;6.22;100.00;154094.91;4939942;29;20043;-80
2022/09/30 03:47:18;;;;;;;24.58;17.23;;;;;;;6.19;100.00;154088.47;4935961;28;20043;-81
2022/09/30 03:49:54;;;;;;;21.13;17.00;;;;;;;6.13;100.00;154073.16;4924971;28;20614;-81
2022/09/30 03:52:25;;;;;;;20.63;16.67;;;;;;;6.09;100.00;154061.66;4941065;28;20398;-81
2022/09/30 03:54:56;;;;;;;20.85;16.08;;;;;;;5.98;100.00;154034.78;4931717;29;20043;-80
2022/09/30 03:57:22;;;;;;;23.42;16.75;;;;;;;5.92;100.00;154020.66;4956535;28;20588;-80
2022/09/30 03:59:49;;;;;;;22.95;16.63;;;;;;;5.89;100.00;154011.72;4929762;28;20035;-81
2022/09/30 04:02:14;;;;;;;25.13;16.15;;;;;;;5.82;100.00;153995.06;4959043;28;20043;-80
2022/09/30 04:04:40;;;;;;;22.65;16.55;;;;;;;5.76;100.00;153981.00;4924612;29;20039;-81
2022/09/30 04:07:10;;;;;;;20.63;16.13;;;;;;;5.59;100.00;153938.78;4953845;28;20121;-80
2022/09/30 04:09:39;;;;;;;19.77;16.20;;;;;;;5.69;100.00;153961.81;4916347;29;20046;-80
2022/09/30 04:12:06;;;;;;;25.17;17.95;;;;;;;5.58;100.00;153935.00;4951442;28;20062;-80
2022/09/30 04:14:32;;;;;;;24.50;16.65;;;;;;;5.57;100.00;153933.69;4933701;28;20106;-80
2022/09/30 04:16:58;;;;;;;22.15;16.23;;;;;;;5.60;100.00;153941.38;4926612;29;20490;-81
2022/09/30 04:19:23;;;;;;;22.75;15.85;;;;;;;5.63;100.00;153949.06;4937822;28;20079;-80
2022/09/30 04:21:53;;;;;;;24.98;16.30;;;;;;;5.66;100.00;153955.44;4928297;28;20038;-81
2022/09/30 04:24:23;;;;;;;22.55;16.38;;;;;;;5.66;100.00;153955.44;4941595;28;20109;-79
2022/09/30 04:26:49;;;;;;;23.23;17.52;;;;;;;5.56;100.00;153929.88;4956821;28;20085;-81
2022/09/30 04:29:15;;;;;;;19.80;15.98;;;;;;;5.60;100.00;153941.38;4945204;28;20030;-81
2022/09/30 04:31:41;;;;;;;23.20;16.00;;;;;;;5.57;100.00;153932.41;4933843;29;20027;-81
2022/09/30 04:34:07;;;;;;;19.50;16.17;;;;;;;5.56;100.00;153929.88;4960374;28;20102;-80
2022/09/30 04:36:32;;;;;;;27.58;16.48;;;;;;;5.51;100.00;153917.09;4952132;28;20031;-81
2022/09/30 04:38:58;;;;;;;19.98;16.13;;;;;;;5.51;100.00;153917.09;4929213;28;20034;-81
2022/09/30 04:41:23;;;;;;;24.35;16.75;;;;;;;5.40;100.00;153890.22;4935264;28;20674;-80
2022/09/30 04:43:49;;;;;;;25.52;15.73;;;;;;;5.36;100.00;153880.00;4943232;28;20026;-81
2022/09/30 04:46:16;;;;;;;21.70;16.00;;;;;;;5.36;100.00;153880.00;4952886;28;20385;-80
2022/09/30 04:48:46;;;;;;;19.73;15.57;;;;;;;5.31;100.00;153868.47;4926765;28;20035;-80
2022/09/30 04:51:16;;;;;;;20.42;15.73;;;;;;;5.28;100.00;153859.56;4936914;28;20028;-80
2022/09/30 04:53:43;;;;;;;23.60;16.50;;;;;;;5.24;100.00;153851.88;4948871;29;20063;-81
2022/09/30 04:56:09;;;;;;;23.23;16.67;;;;;;;5.18;100.00;153835.22;4943899;29;20039;-80
2022/09/30 04:58:34;;;;;;;23.55;17.27;;;;;;;5.15;100.00;153828.84;4946481;28;20031;-80
2022/09/30 05:01:02;;;;;;;21.50;17.08;;;;;;;5.11;100.00;153818.66;4940707;28;20497;-80
2022/09/30 05:03:28;;;;;;;24.60;16.63;;;;;;;5.15;100.00;153827.59;4932093;28;20078;-81
2022/09/30 05:05:53;;;;;;;20.58;16.15;;;;;;;5.09;100.00;153812.28;4966747;28;20078;-80
2022/09/30 05:08:19;;;;;;;24.27;16.98;;;;;;;5.02;100.00;153796.91;4948807;28;20126;-80
2022/09/30 05:10:56;;;;;;;21.42;17.42;;;;;;;5.01;100.00;153794.38;4925876;28;20122;-81
2022/09/30 05:13:23;;;;;;;21.80;17.10;;;;;;;5.05;100.00;153804.59;4934195;28;20043;-79
2022/09/30 05:15:49;;;;;;;21.00;16.30;;;;;;;5.07;100.00;153808.44;4929421;29;20067;-80
2022/09/30 05:18:15;;;;;;;19.13;15.63;;;;;;;5.03;100.00;153799.47;4924048;28;20073;-80
2022/09/30 05:20:41;;;;;;;21.00;16.05;;;;;;;5.07;100.00;153809.69;4950104;29;20457;-81
2022/09/30 05:23:06;;;;;;;22.80;16.52;;;;;;;5.07;100.00;153809.69;4942580;29;20031;-80
2022/09/30 05:25:33;;;;;;;22.20;17.95;;;;;;;5.09;100.00;153812.28;4931052;28;20432;-80
2022/09/30 05:27:59;;;;;;;24.30;17.50;;;;;;;5.08;100.00;153810.97;4951796;28;20050;-81
2022/09/30 05:30:25;;;;;;;21.73;17.77;;;;;;;5.11;100.00;153818.66;4959308;28;20027;-80
2022/09/30 05:32:50;;;;;;;29.25;17.92;;;;;;;5.12;100.00;153819.91;4931243;29;20087;-79
2022/09/30 05:35:16;;;;;;;24.25;19.42;;;;;;;5.05;100.00;153804.59;4954369;28;20024;-80
2022/09/30 05:37:42;;;;;;;24.00;17.45;;;;;;;5.14;100.00;153826.31;4945103;29;20405;-79
2022/09/30 05:40:07;;;;;;;26.70;20.30;;;;;;;5.16;100.00;153831.44;4942595;29;20035;-78
2022/09/30 05:42:34;;;;;;;21.75;16.85;;;;;;;5.19;100.00;153839.06;4941783;28;20043;-81
2022/09/30 05:47:50;;;;;;;22.55;17.25;;;;;;;5.24;100.00;153850.59;4903092;29;20048;-72
2022/09/30 05:50:16;;;;;;;;;;;;;;;5.24;100.00;153850.59;4916015;29;20040;-73
2022/09/30 05:52:41;;;;;;;22.73;18.25;;;;;;;5.25;100.00;153853.13;4920994;29;19929;-73
2022/09/30 05:55:07;;;;;;;24.08;18.67;;;;;;;5.28;100.00;153860.81;4912106;29;20038;-73
2022/09/30 05:57:33;;;;;;;27.80;19.23;;;;;;;5.31;100.00;153867.19;4925959;29;20535;-73
2022/09/30 05:59:59;;;;;;;27.80;19.17;;;;;;;5.39;100.00;153888.94;4927998;29;20108;-73
2022/09/30 06:02:24;;;;;;;26.02;20.13;;;;;;;5.46;100.00;153905.53;4917398;29;20588;-73
2022/09/30 06:04:50;;;;;;;26.48;19.75;;;;;;;5.52;100.00;153919.63;4920949;29;20082;-73
2022/09/30 06:07:16;;;;;;;28.52;18.67;;;;;;;5.57;100.00;153932.41;4918084;29;20107;-73
2022/09/30 06:09:45;;;;;;;26.50;18.77;;;;;;;5.59;100.00;153938.78;4911240;29;20043;-72
2022/09/30 06:12:11;;;;;;;25.60;19.45;;;;;;;5.85;100.00;154002.75;4902251;29;20501;-73
2022/09/30 06:14:36;;;;;;;27.05;20.15;;;;;;;5.96;100.00;154029.66;4899315;29;20042;-73
2022/09/30 06:17:05;;;;;;;25.40;20.50;;;;;;;6.11;100.00;154066.75;4940439;29;20035;-73
2022/09/30 06:19:31;;;;;;;29.80;21.40;;;;;;;6.22;100.00;154096.19;4924016;29;20040;-73
2022/09/30 06:21:57;;;;;;;26.65;20.80;;;;;;;6.39;100.00;154138.41;4913088;29;20559;-73
2022/09/30 06:24:23;;;;;;;26.20;20.90;;;;;;;6.55;100.00;154178.03;4892850;29;20066;-73
2022/09/30 06:26:49;;;;;;;25.73;21.73;;;;;;;6.71;100.00;154217.72;4899152;29;20533;-73
2022/09/30 06:29:15;;;;;;;27.40;23.02;;;;;;;6.89;100.00;154262.50;4929224;29;20042;-73
2022/09/30 06:31:41;;;;;;;26.77;22.77;;;;;;;7.02;100.00;154294.50;4908306;29;20048;-72
2022/09/30 06:34:07;;;;;;;25.58;19.70;;;;;;;7.12;100.00;154320.13;4908287;29;20046;-73
2022/09/30 06:36:35;;;;;;;23.60;21.02;;;;;;;7.26;100.00;154354.69;4906510;29;20113;-73
2022/09/30 06:39:01;;;;;;;26.75;21.70;;;;;;;7.41;100.00;154391.81;4906558;29;20032;-73
2022/09/30 06:41:27;;;;;;;26.20;21.20;;;;;;;7.52;100.00;154419.97;4924277;29;20636;-73
2022/09/30 06:43:54;;;;;;;23.38;20.38;;;;;;;7.65;100.00;154452.00;4889611;29;20052;-72
2022/09/30 06:46:22;;;;;;;25.00;19.98;;;;;;;7.84;100.00;154498.09;4927129;29;20039;-72
2022/09/30 06:48:58;;;;;;;22.90;18.02;;;;;;;7.89;100.00;154510.88;4892550;29;20032;-72
2022/09/30 06:51:28;;;;;;;20.35;16.80;;;;;;;7.87;100.00;154505.75;4915054;29;20131;-72
2022/09/30 06:53:54;;;;;;;19.02;16.23;;;;;;;7.87;100.00;154505.75;4886058;29;20044;-73
2022/09/30 06:56:20;;;;;;;20.52;15.85;;;;;;;7.99;100.00;154536.53;4894999;29;20552;-72
2022/09/30 06:58:45;;;;;;;18.20;16.05;;;;;;;8.15;100.00;154576.22;4900762;29;20043;-73
2022/09/30 07:01:13;;;;;;;18.77;14.90;;;;;;;8.23;100.00;154595.41;4914168;29;20419;-73
2022/09/30 07:03:40;;;;;;;16.35;14.63;;;;;;;8.29;100.00;154610.81;4887073;29;20423;-72
2022/09/30 07:06:05;;;;;;;15.18;13.57;;;;;;;8.37;100.00;154632.56;4901882;29;20424;-73
2022/09/30 07:08:33;;;;;;;15.52;12.75;;;;;;;8.54;100.00;154674.91;4920421;29;20043;-72
2022/09/30 07:11:03;;;;;;;18.85;14.38;;;;;;;8.62;100.00;154694.09;4890423;29;20028;-73
2022/09/30 07:13:29;;;;;;;14.07;12.57;;;;;;;8.71;100.00;154715.91;4928220;29;20569;-72
2022/09/30 07:15:55;;;;;;;14.00;12.38;;;;;;;8.73;100.00;154721.03;4915043;29;20086;-73
2022/09/30 07:18:23;;;;;;;14.95;12.55;;;;;;;8.87;100.00;154755.63;4901150;29;20446;-72
2022/09/30 07:20:53;;;;;;;14.65;13.07;;;;;;;8.96;100.00;154778.69;4890628;29;20066;-72
2022/09/30 07:23:19;;;;;;;15.27;12.55;;;;;;;8.96;100.00;154779.97;4893407;29;20050;-73
2022/09/30 07:25:49;;;;;;;13.35;12.02;;;;;;;9.14;100.00;154824.84;4900146;29;20040;-73
2022/09/30 07:28:15;;;;;;;15.02;11.57;;;;;;;9.19;100.00;154835.09;4911448;29;20415;-73
2022/09/30 07:30:42;;;;;;;14.05;11.43;;;;;;;9.26;100.00;154854.31;4915938;29;20066;-73
2022/09/30 07:33:08;;;;;;;13.98;11.02;;;;;;;9.40;100.00;154887.63;4906486;29;20036;-73
2022/09/30 07:35:34;;;;;;;11.85;10.68;;;;;;;9.41;100.00;154890.22;4910532;29;20035;-73
2022/09/30 07:38:00;;;;;;;13.63;11.20;;;;;;;9.50;100.00;154914.56;4913588;29;20413;-74
2022/09/30 07:40:30;;;;;;;11.70;10.50;;;;;;;9.65;100.00;154950.47;4896609;29;20024;-73
2022/09/30 07:42:56;;;;;;;12.05;10.82;;;;;;;9.81;100.00;154991.47;4910996;29;20208;-73
2022/09/30 07:45:22;;;;;;;11.25;10.07;;;;;;;9.78;100.00;154983.81;4903020;29;20066;-74
2022/09/30 07:47:48;;;;;;;11.73;9.40;;;;;;;9.77;100.00;154981.25;4904722;29;20033;-74
2022/09/30 07:50:14;;;;;;;13.90;10.07;;;;;;;9.88;100.00;155009.44;4915547;29;20489;-74
2022/09/30 07:52:40;;;;;;;12.35;10.23;;;;;;;9.98;100.00;155033.81;4913843;29;20039;-74
2022/09/30 07:55:05;;;;;;;11.52;10.23;;;;;;;10.10;100.00;155063.34;4912024;29;20047;-73
2022/09/30 07:57:31;;;;;;;11.90;9.48;;;;;;;10.32;100.00;155118.50;4919428;29;20028;-73
2022/09/30 07:59:57;;;;;;;10.65;8.80;;;;;;;10.40;100.00;155139.06;4921218;29;20082;-73
2022/09/30 08:02:23;;;;;;;11.57;9.68;;;;;;;10.56;100.00;155177.53;4917343;29;20823;-72
2022/09/30 08:04:49;;;;;;;10.00;9.00;;;;;;;10.60;100.00;155187.78;4897907;29;20043;-73
2022/09/30 08:07:16;;;;;;;11.35;9.43;;;;;;;10.73;100.00;155221.16;4910241;29;20060;-74
2022/09/30 08:09:42;;;;;;;10.45;8.55;;;;;;;10.80;100.00;155239.13;4877309;29;20856;-73
2022/09/30 08:12:08;;;;;;;9.25;8.23;;;;;;;10.88;100.00;155259.63;4894383;29;20124;-73
2022/09/30 08:14:34;;;;;;;10.73;7.93;;;;;;;11.10;100.00;155313.56;4907473;29;20040;-73
2022/09/30 08:17:00;;;;;;;10.00;8.43;;;;;;;11.29;100.00;155361.03;4912270;29;20039;-73
2022/09/30 08:19:28;;;;;;;8.93;8.02;;;;;;;11.40;100.00;155388.00;4909737;29;20120;-73
2022/09/30 08:21:55;;;;;;;9.95;7.50;;;;;;;11.63;100.00;155447.03;4888650;29;20046;-73
2022/09/30 08:24:22;;;;;;;11.80;7.57;;;;;;;11.80;100.00;155488.13;4911092;29;20043;-73
2022/09/30 08:26:47;;;;;;;6.07;5.47;;;;;;;11.82;100.00;155494.53;4893663;29;20318;-73
2022/09/30 08:29:13;;;;;;;8.73;6.07;;;;;;;11.78;100.00;155483.00;4903929;29;20565;-73
2022/09/30 08:31:41;;;;;;;9.52;6.03;;;;;;;11.86;100.00;155504.78;4910189;29;20048;-73
2022/09/30 08:34:06;;;;;;;6.68;4.82;;;;;;;12.00;100.00;155538.28;4911123;29;20040;-74
2022/09/30 08:36:32;;;;;;;8.65;5.65;;;;;;;12.05;100.00;155552.41;4913207;29;20119;-73
2022/09/30 08:38:58;;;;;;;5.82;5.20;;;;;;;12.15;100.00;155576.78;4891533;29;20031;-73
2022/09/30 08:41:26;;;;;;;5.05;4.60;;;;;;;12.31;100.00;155615.31;4896523;29;20055;-73
2022/09/30 08:44:17;;;;;;;4.97;4.32;;;;;;;12.48;100.00;155657.69;4896875;29;20059;-74
2022/09/30 08:46:54;;;;;;;4.78;4.18;;;;;;;12.37;100.00;155631.97;4912625;29;20417;-74
2022/09/30 08:49:43;;;;;;;4.40;3.80;;;;;;;12.32;100.00;155617.84;4886880;29;20098;-74
2022/09/30 08:52:13;;;;;;;4.22;3.83;;;;;;;12.23;100.00;155597.31;4921788;29;20497;-73
2022/09/30 08:54:45;;;;;;;4.25;3.70;;;;;;;12.23;100.00;155597.31;4903213;29;20048;-73
2022/09/30 08:57:11;;;;;;;9.90;3.60;;;;;;;12.20;100.00;155588.31;4896792;29;20498;-72
2022/09/30 08:59:52;;;;;;;3.60;3.30;;;;;;;12.15;100.00;155576.78;4898689;29;20119;-73
2022/09/30 09:02:30;;;;;;;4.22;3.40;;;;;;;12.15;100.00;155575.47;4911409;29;20040;-74
2022/09/30 09:05:00;;;;;;;5.70;2.97;;;;;;;12.06;100.00;155554.94;4905093;29;20051;-71
2022/09/30 09:07:59;;;;;;;3.03;2.60;;;;;;;12.07;100.00;155556.22;4910355;29;20044;-71
2022/09/30 09:10:45;;;;;;;4.25;2.85;;;;;;;12.30;100.00;155612.72;4909927;29;20095;-74
2022/09/30 09:13:36;;;;;;;3.60;2.42;;;;;;;12.45;100.00;155652.56;4903420;29;20032;-73
2022/09/30 09:16:05;;;;;;;4.07;2.65;;;;;;;12.72;100.00;155719.34;4895674;29;20060;-73
2022/09/30 09:18:38;;;;;;;2.50;2.30;;;;;;;12.76;100.00;155729.63;4905523;29;20079;-72
2022/09/30 09:21:18;;;;;;;2.42;1.80;;;;;;;12.82;100.00;155743.75;4913275;29;20071;-72
2022/09/30 09:23:45;;;;;;;3.05;2.03;;;;;;;13.03;100.00;155797.75;4907863;29;20039;-72
2022/09/30 09:26:14;;;;;;;2.47;1.80;;;;;;;13.33;100.00;155871.00;4905922;29;20044;-72
2022/09/30 09:29:02;;;;;;;2.60;1.73;;;;;;;13.61;100.00;155942.97;4897066;29;20043;-72
2022/09/30 09:31:28;;;;;;;2.97;2.00;;;;;;;13.62;100.00;155945.56;4930121;29;20076;-73
2022/09/30 09:34:00;;;;;;;4.15;2.35;;;;;;;13.37;100.00;155882.59;4882316;29;20739;-73
2022/09/30 09:36:43;;;;;;;3.03;2.13;;;;;;;13.48;100.00;155909.56;4892806;29;20083;-72
2022/09/30 09:39:40;;;;;;;2.30;2.10;;;;;;;13.51;100.00;155917.28;4912253;29;20429;-73
2022/09/30 09:42:30;;;;;;;3.13;2.22;;;;;;;13.61;100.00;155942.97;4921163;29;20044;-72
2022/09/30 09:45:08;;;;;;;2.22;1.90;;;;;;;13.68;100.00;155959.72;4893830;29;20135;-72
2022/09/30 09:47:36;;;;;;;3.47;2.03;;;;;;;13.75;100.00;155976.38;4908571;29;20063;-72
2022/09/30 09:50:04;;;;;;;3.85;2.08;;;;;;;13.81;100.00;155991.84;4910125;29;20051;-74
2022/09/30 09:52:42;;;;;;;3.42;1.85;;;;;;;13.74;100.00;155973.84;4910202;29;20049;-73
2022/09/30 09:55:09;;;;;;;2.72;1.80;;;;;;;13.81;100.00;155991.84;4917075;29;20507;-73
2022/09/30 09:57:34;;;;;;;2.45;1.90;;;;;;;13.87;100.00;156006.00;4910254;29;20059;-72
2022/09/30 10:03:25;;;;;;;1.40;1.30;;;;;;;13.98;100.00;156034.28;4920104;29;20044;-72
2022/09/30 10:06:08;;;;;;;4.13;1.42;;;;;;;14.13;100.00;156071.56;4909542;29;20127;-73
2022/09/30 10:08:35;;;;;;;;;;;;;;;14.19;100.00;156088.25;4912126;29;20062;-72
2022/09/30 10:11:04;;;;;;;7.95;1.40;;;;;;;14.30;100.00;156114.00;4937776;29;19919;-72
2022/09/30 10:13:39;;;;;;;2.08;1.15;;;;;;;14.38;100.00;156134.56;4909609;29;20040;-73
2022/09/30 10:16:05;;;;;;;3.08;1.20;;;;;;;14.41;100.00;156143.56;4907044;29;20417;-73
2022/09/30 10:18:33;;;;;;;2.95;1.30;;;;;;;14.36;100.00;156130.69;4912289;29;20036;-72
2022/09/30 10:21:08;;;;;;;1.90;1.33;;;;;;;14.35;100.00;156128.16;4913802;29;20042;-72
2022/09/30 10:23:39;;;;;;;3.70;1.35;;;;;;;14.34;100.00;156124.28;4908904;29;20043;-74
2022/09/30 10:26:14;;;;;;;3.35;1.00;;;;;;;14.41;100.00;156142.28;4913450;29;20044;-73
2022/09/30 10:29:24;;;;;;;3.28;1.10;;;;;;;14.38;100.00;156134.56;4917319;29;20537;-74
2022/09/30 10:31:51;;;;;;;1.65;0.95;;;;;;;14.30;100.00;156115.28;4896465;29;20044;-73
2022/09/30 10:34:22;;;;;;;2.15;1.10;;;;;;;14.39;100.00;156137.09;4901596;29;20569;-73
2022/09/30 10:36:49;;;;;;;1.83;0.90;;;;;;;14.37;100.00;156133.28;4906366;29;20047;-74
2022/09/30 10:39:25;;;;;;;2.42;0.85;;;;;;;14.44;100.00;156149.97;4875436;29;20048;-74
2022/09/30 10:41:59;;;;;;;1.08;0.98;;;;;;;14.52;100.00;156170.59;4890691;29;20091;-74
2022/09/30 10:44:26;;;;;;;1.70;1.20;;;;;;;14.57;100.00;156183.47;4902966;29;20040;-72
2022/09/30 10:46:59;;;;;;;3.63;1.20;;;;;;;14.51;98.36;156166.72;4891719;29;20040;-74
2022/09/30 10:49:35;;;;;;;1.77;1.10;;;;;;;14.55;98.62;156178.28;4917518;29;20063;-73
2022/09/30 10:52:02;;;;;;;2.65;1.17;;;;;;;14.44;97.08;156148.69;4897957;29;20048;-72
2022/09/30 10:54:56;;;;;;;2.25;1.10;;;;;;;14.47;100.00;156156.44;4894632;29;20035;-73
2022/09/30 10:57:26;;;;;;;1.80;1.20;;;;;;;14.55;99.97;156178.28;4908835;29;20044;-73
2022/09/30 10:59:56;;;;;;;1.60;1.05;;;;;;;14.83;100.00;156246.50;4904207;29;20047;-73
2022/09/30 11:02:29;;;;;;;1.95;1.15;;;;;;;14.78;96.27;156234.91;4913698;29;20926;-73
2022/09/30 11:05:01;;;;;;;;;;;;;;;14.85;97.64;156252.94;4922149;29;20105;-72
2022/09/30 11:07:53;;;;;;;1.05;1.02;;;;;;;14.78;94.60;156234.91;4906026;29;19926;-73
2022/09/30 11:10:52;;;;;;;2.00;1.15;;;;;;;14.72;98.72;156220.75;4910228;29;20469;-73
2022/09/30 11:13:26;;;;;;;1.08;0.90;;;;;;;14.46;97.74;156155.13;4923110;29;20394;-74
2022/09/30 11:15:55;;;;;;;3.58;1.10;;;;;;;14.27;98.03;156106.28;4900394;29;20513;-72
2022/09/30 11:18:28;;;;;;;2.47;0.93;;;;;;;14.38;100.00;156134.56;4906535;29;20032;-72
2022/09/30 11:20:59;;;;;;;2.60;1.00;;;;;;;14.61;94.77;156192.47;4909359;29;20807;-72
2022/09/30 11:23:43;;;;;;;4.07;1.20;;;;;;;14.50;93.52;156164.13;4899574;29;20047;-72
2022/09/30 11:26:37;;;;;;;1.33;0.80;;;;;;;14.41;97.27;156143.56;4912450;29;20075;-72
2022/09/30 11:29:41;;;;;;;1.35;1.00;;;;;;;14.83;100.00;156247.78;4895753;29;20039;-73
2022/09/30 11:32:25;;;;;;;2.38;0.90;;;;;;;15.11;100.00;156318.53;4832891;29;20054;-74
2022/09/30 11:35:00;;;;;;;1.70;0.95;;;;;;;15.55;100.00;156427.91;4833293;29;20056;-73
2022/09/30 11:37:44;;;;;;;4.88;0.95;;;;;;;15.33;100.00;156372.56;4886492;29;20084;-73
2022/09/30 11:40:37;;;;;;;2.10;0.90;;;;;;;14.94;96.28;156274.81;4898932;29;20054;-74
2022/09/30 11:43:08;;;;;;;7.53;1.00;;;;;;;15.27;100.00;156357.13;4907361;29;20125;-72